Terminal Aerodrome Forecast
Issued by NWS

Home | Current Version | Previous Version | Text Only | Print | Product List | Glossary On
Versions: 1 2 3 4 5 6 7 8 9 10 11 12 13 14 15 16 17 18
000
FTUS44 KLZK 161100 AAB
TAFBPK
TAF AMD
KBPK 161157Z 1612/1712 VRB03KT P6SM OVC005
      TEMPO 1612/1615 5SM BR SCT007 OVC012
     FM161500 06004KT P6SM OVC015
     FM161900 06004KT P6SM SCT025 BKN060
     FM170100 12003KT P6SM SCT060 SCT250
     FM170800 13003KT P6SM BKN060=

USA.gov is the U.S. government's official web portal to all federal, state and local government web resources and services.